Time;durP1;ratioP1;P1;durP2;ratioP2;P2;SDS_P1;SDS_P2;PMS_P1;PMS_P2;Temp;Humidity;BMP_temperature;BMP_pressure;BME280_temperature;BME280_humidity;BME280_pressure;Samples;Min_cycle;Max_cycle;Signal;HPM_P1;HPM_P2
2020/12/15 00:02:07;;;;;;;7.90;6.30;;;;;;;5.27;82.82;99594.75;5082108;28;20479;-69
2020/12/15 00:04:34;;;;;;;6.27;5.67;;;;;;;5.41;81.83;99591.00;5067045;28;20461;-69
2020/12/15 00:07:00;;;;;;;7.50;5.30;;;;;;;5.59;81.24;99602.78;5065955;28;20488;-69
2020/12/15 00:09:26;;;;;;;6.87;5.73;;;;;;;5.76;80.10;99606.69;5065288;28;20437;-69
2020/12/15 00:11:52;;;;;;;7.67;5.90;;;;;;;5.87;79.19;99608.47;5084341;28;20482;-70
2020/12/15 00:14:18;;;;;;;6.90;5.47;;;;;;;5.87;79.67;99608.47;5077737;28;20457;-70
2020/12/15 00:16:45;;;;;;;6.13;5.30;;;;;;;5.95;79.03;99605.19;5063642;28;20477;-70
2020/12/15 00:19:11;;;;;;;6.73;6.10;;;;;;;5.82;79.88;99590.28;5070753;28;20487;-70
2020/12/15 00:21:41;;;;;;;7.60;5.37;;;;;;;5.91;79.58;99590.50;5083879;28;20482;-70
2020/12/15 00:24:07;;;;;;;6.37;5.00;;;;;;;6.03;77.96;99600.94;5079106;28;20484;-69
2020/12/15 00:26:33;;;;;;;7.13;5.07;;;;;;;6.05;78.57;99600.00;5063260;28;21022;-69
2020/12/15 00:28:59;;;;;;;5.20;4.47;;;;;;;6.21;77.03;99598.59;5064547;28;20484;-69
2020/12/15 00:31:25;;;;;;;5.20;4.70;;;;;;;6.33;76.03;99595.84;5063780;28;20481;-70
2020/12/15 00:33:52;;;;;;;5.50;4.57;;;;;;;6.30;76.42;99594.31;5078287;28;20482;-70
2020/12/15 00:36:19;;;;;;;6.40;5.00;;;;;;;6.39;74.95;99585.56;5083369;28;20503;-70
2020/12/15 00:38:46;;;;;;;5.03;4.60;;;;;;;6.42;75.45;99563.22;5084517;28;20483;-70
2020/12/15 00:41:13;;;;;;;7.07;5.30;;;;;;;6.37;75.01;99581.34;5083777;28;20502;-70
2020/12/15 00:43:39;;;;;;;4.90;4.23;;;;;;;6.36;74.93;99583.16;5081478;28;20462;-69
2020/12/15 00:46:05;;;;;;;5.40;4.90;;;;;;;6.44;75.16;99585.19;5083814;28;20476;-69
2020/12/15 00:48:31;;;;;;;5.20;4.70;;;;;;;6.40;75.65;99589.88;5084591;28;20443;-70
2020/12/15 00:50:58;;;;;;;4.80;4.20;;;;;;;6.46;74.76;99593.00;5083161;28;20475;-70
2020/12/15 00:53:24;;;;;;;5.00;4.50;;;;;;;6.57;74.55;99598.25;5084444;28;20452;-70
2020/12/15 00:55:51;;;;;;;5.27;4.77;;;;;;;6.47;75.02;99598.19;5082685;28;20476;-69
2020/12/15 00:58:17;;;;;;;5.67;5.17;;;;;;;6.59;73.98;99596.31;5075350;28;20445;-69
2020/12/15 01:00:43;;;;;;;5.73;4.37;;;;;;;6.56;74.18;99593.91;5064084;28;20480;-69
2020/12/15 01:03:09;;;;;;;5.17;3.93;;;;;;;6.63;73.87;99594.22;5085011;28;20424;-70
2020/12/15 01:05:35;;;;;;;5.20;4.53;;;;;;;6.68;73.91;99594.66;5082957;28;20542;-70
2020/12/15 01:08:01;;;;;;;4.77;3.90;;;;;;;6.59;73.57;99599.78;5065900;28;20445;-69
2020/12/15 01:10:28;;;;;;;5.00;4.20;;;;;;;6.75;72.89;99582.53;5069436;28;20491;-70
2020/12/15 01:12:55;;;;;;;5.90;4.40;;;;;;;6.68;73.81;99570.75;5078913;28;20463;-70
2020/12/15 01:15:21;;;;;;;4.10;3.63;;;;;;;6.75;73.14;99562.16;5062240;28;20484;-69
2020/12/15 01:17:47;;;;;;;5.57;3.87;;;;;;;6.83;72.75;99560.63;5064804;28;20463;-69
2020/12/15 01:20:13;;;;;;;4.40;3.87;;;;;;;6.81;73.54;99560.75;5070663;28;20456;-70
2020/12/15 01:22:39;;;;;;;4.67;4.10;;;;;;;6.88;72.60;99559.25;5085140;28;20436;-69
2020/12/15 01:25:05;;;;;;;4.23;3.80;;;;;;;6.91;72.65;99560.78;5093768;28;20471;-68
2020/12/15 01:27:31;;;;;;;4.43;4.03;;;;;;;6.95;72.09;99564.88;5101854;28;20476;-69
2020/12/15 01:29:58;;;;;;;3.73;3.43;;;;;;;6.94;72.10;99569.34;5084489;28;20997;-69
2020/12/15 01:32:25;;;;;;;4.40;4.00;;;;;;;6.96;72.10;99570.06;5087407;28;20460;-69
2020/12/15 01:34:51;;;;;;;4.87;4.37;;;;;;;7.01;72.05;99568.81;5091694;28;20487;-69
2020/12/15 01:37:17;;;;;;;4.03;3.63;;;;;;;6.90;73.03;99565.25;5086888;28;20507;-69
2020/12/15 01:39:43;;;;;;;4.60;3.50;;;;;;;6.92;72.83;99571.28;5093899;28;20952;-69
2020/12/15 01:42:10;;;;;;;4.97;4.40;;;;;;;6.99;71.82;99571.59;5107276;28;20469;-69
2020/12/15 01:44:36;;;;;;;4.50;4.00;;;;;;;7.02;72.01;99560.69;5091692;28;20458;-69
2020/12/15 01:47:03;;;;;;;4.33;3.60;;;;;;;7.05;72.44;99570.19;5107220;28;20502;-69
2020/12/15 01:49:30;;;;;;;3.97;3.60;;;;;;;7.06;72.13;99572.72;5093068;28;20479;-69
2020/12/15 01:51:56;;;;;;;4.60;3.97;;;;;;;7.08;72.02;99564.63;5086738;28;20487;-69
2020/12/15 01:54:22;;;;;;;4.97;4.27;;;;;;;7.03;72.44;99565.06;5103143;28;20481;-69
2020/12/15 01:56:48;;;;;;;4.67;4.00;;;;;;;7.07;71.82;99569.09;5106906;28;20941;-69
2020/12/15 01:59:15;;;;;;;4.63;3.57;;;;;;;7.01;71.96;99572.28;5103561;28;20524;-69
2020/12/15 02:01:45;;;;;;;4.50;4.10;;;;;;;7.07;72.28;99560.31;5107375;28;20497;-69
2020/12/15 02:04:13;;;;;;;5.10;4.20;;;;;;;7.03;72.74;99559.75;5094731;28;20455;-69
2020/12/15 02:06:39;;;;;;;3.60;3.20;;;;;;;7.03;72.83;99553.56;5086374;28;20498;-69
2020/12/15 02:09:06;;;;;;;4.27;3.87;;;;;;;7.01;72.38;99550.19;5102165;28;20466;-70
2020/12/15 02:11:32;;;;;;;4.90;3.77;;;;;;;7.06;72.40;99548.81;5106738;28;20475;-69
2020/12/15 02:13:59;;;;;;;5.17;4.67;;;;;;;7.09;72.01;99558.34;5104610;28;20494;-69
2020/12/15 02:16:25;;;;;;;4.40;4.00;;;;;;;7.10;72.80;99555.56;5105497;28;20475;-69
2020/12/15 02:18:51;;;;;;;4.10;3.70;;;;;;;7.00;72.71;99554.69;5108421;28;20511;-69
2020/12/15 02:21:18;;;;;;;4.00;3.60;;;;;;;6.92;73.51;99550.03;5103206;28;20495;-69
2020/12/15 02:23:45;;;;;;;4.37;3.80;;;;;;;7.09;72.33;99556.53;5087649;28;20452;-69
2020/12/15 02:26:11;;;;;;;4.47;4.07;;;;;;;7.10;72.03;99554.69;5086935;28;20492;-69
2020/12/15 02:28:37;;;;;;;4.07;3.67;;;;;;;7.02;73.23;99558.03;5095580;28;20483;-69
2020/12/15 02:31:03;;;;;;;4.40;3.90;;;;;;;7.11;72.29;99562.53;5087170;28;20547;-69
2020/12/15 02:33:31;;;;;;;3.73;3.37;;;;;;;7.20;71.64;99560.06;5107496;28;20447;-69
2020/12/15 02:35:57;;;;;;;5.10;3.93;;;;;;;7.07;72.92;99560.31;5103145;28;20478;-69
2020/12/15 02:38:23;;;;;;;4.33;3.93;;;;;;;7.13;72.48;99570.38;5088015;28;20420;-69
2020/12/15 02:40:50;;;;;;;4.20;3.70;;;;;;;7.23;71.09;99562.44;5088452;28;20470;-69
2020/12/15 02:43:16;;;;;;;5.97;4.00;;;;;;;7.13;72.77;99565.94;5097581;28;20436;-69
2020/12/15 02:45:43;;;;;;;4.43;3.80;;;;;;;7.10;72.32;99560.88;5100496;28;20485;-69
2020/12/15 02:48:09;;;;;;;5.43;3.63;;;;;;;7.19;72.05;99561.88;5107730;28;20504;-69
2020/12/15 02:50:35;;;;;;;4.13;3.73;;;;;;;7.08;72.66;99562.84;5091484;28;20495;-69
2020/12/15 02:53:01;;;;;;;4.10;3.70;;;;;;;7.04;73.28;99561.41;5087581;28;20439;-69
2020/12/15 02:55:27;;;;;;;4.20;3.80;;;;;;;7.10;73.40;99565.31;5096487;28;20474;-70
2020/12/15 02:57:54;;;;;;;4.13;3.73;;;;;;;7.03;72.29;99574.81;5101332;28;20600;-69
2020/12/15 03:00:21;;;;;;;4.87;4.37;;;;;;;7.02;72.83;99579.31;5097293;28;20983;-69
2020/12/15 03:02:48;;;;;;;4.63;4.17;;;;;;;7.05;72.54;99583.50;5107798;28;20499;-70
2020/12/15 03:05:15;;;;;;;4.03;3.37;;;;;;;7.02;72.50;99578.47;5104956;28;20458;-69
2020/12/15 03:07:41;;;;;;;4.00;3.50;;;;;;;7.06;72.09;99591.34;5089513;28;20468;-69
2020/12/15 03:10:08;;;;;;;4.43;3.67;;;;;;;7.05;72.80;99584.34;5089393;28;20547;-69
2020/12/15 03:12:34;;;;;;;4.27;3.90;;;;;;;7.01;73.17;99571.47;5087144;28;20464;-69
2020/12/15 03:15:01;;;;;;;4.63;4.13;;;;;;;6.96;72.78;99586.00;5101170;28;20514;-70
2020/12/15 03:17:28;;;;;;;4.93;3.70;;;;;;;7.03;72.52;99586.31;5105762;28;20502;-69
2020/12/15 03:19:54;;;;;;;4.53;4.00;;;;;;;7.12;72.23;99585.50;5093476;28;20488;-69
2020/12/15 03:22:20;;;;;;;3.73;3.23;;;;;;;7.03;73.14;99583.66;5085582;28;20483;-70
2020/12/15 03:24:47;;;;;;;4.50;4.10;;;;;;;6.97;72.84;99587.66;5097749;28;20910;-69
2020/12/15 03:27:13;;;;;;;5.03;3.70;;;;;;;7.08;73.27;99591.22;5099440;28;20477;-70
2020/12/15 03:29:39;;;;;;;5.20;3.60;;;;;;;7.10;72.50;99591.91;5086336;28;20448;-70
2020/12/15 03:32:06;;;;;;;4.77;3.90;;;;;;;7.08;72.78;99592.06;5086134;28;21066;-69
2020/12/15 03:34:32;;;;;;;4.20;3.80;;;;;;;7.03;72.96;99591.63;5086593;28;20471;-70
2020/12/15 03:36:58;;;;;;;4.37;3.97;;;;;;;7.04;72.73;99597.78;5091621;28;20562;-70
2020/12/15 03:39:24;;;;;;;4.53;3.57;;;;;;;7.11;72.33;99602.41;5106872;28;20438;-69
2020/12/15 03:41:54;;;;;;;4.00;3.70;;;;;;;7.15;73.04;99601.19;5100215;28;20533;-69
2020/12/15 03:44:21;;;;;;;4.93;3.67;;;;;;;7.23;72.36;99592.53;5098502;28;20971;-69
2020/12/15 03:46:47;;;;;;;4.00;3.60;;;;;;;7.28;72.14;99592.97;5103840;28;20471;-68
2020/12/15 03:49:14;;;;;;;3.87;3.47;;;;;;;7.09;74.22;99585.75;5106299;28;20905;-69
2020/12/15 03:51:40;;;;;;;4.00;3.63;;;;;;;7.09;73.51;99593.72;5098143;28;20845;-69
2020/12/15 03:54:06;;;;;;;4.00;3.60;;;;;;;7.02;74.63;99591.75;5105385;28;20474;-69
2020/12/15 03:56:32;;;;;;;4.27;3.57;;;;;;;7.07;74.95;99593.03;5104381;28;20510;-69
2020/12/15 03:58:58;;;;;;;6.57;4.13;;;;;;;6.93;76.15;99588.91;5090842;28;20458;-69
2020/12/15 04:01:24;;;;;;;4.67;4.23;;;;;;;6.79;77.88;99587.47;5102723;28;20483;-70
2020/12/15 04:03:51;;;;;;;4.23;3.83;;;;;;;6.76;77.18;99590.38;5106736;28;20470;-70
2020/12/15 04:06:18;;;;;;;4.93;4.17;;;;;;;6.76;76.75;99582.41;5103408;28;20524;-69
2020/12/15 04:08:44;;;;;;;4.10;3.70;;;;;;;6.77;77.73;99583.25;5105412;28;20443;-70
2020/12/15 04:11:10;;;;;;;4.40;4.00;;;;;;;6.71;78.23;99576.66;5104450;28;20482;-70
2020/12/15 04:13:36;;;;;;;5.00;4.30;;;;;;;6.69;78.72;99583.91;5101012;28;20447;-69
2020/12/15 04:16:02;;;;;;;4.77;4.17;;;;;;;6.63;79.06;99597.75;5091343;28;20499;-70
2020/12/15 04:18:29;;;;;;;8.70;5.10;;;;;;;6.42;80.39;99603.03;5086914;28;20707;-69
2020/12/15 04:20:55;;;;;;;5.67;5.00;;;;;;;6.47;80.18;99594.69;5083988;28;20487;-69
2020/12/15 04:23:22;;;;;;;5.77;5.20;;;;;;;6.48;80.03;99599.03;5089208;28;20975;-69
2020/12/15 04:25:52;;;;;;;6.03;5.37;;;;;;;6.54;80.57;99596.69;5083058;28;20488;-69
2020/12/15 04:28:19;;;;;;;6.10;5.17;;;;;;;6.42;81.44;99595.06;5085837;28;20531;-69
2020/12/15 04:30:45;;;;;;;8.00;5.70;;;;;;;6.39;81.33;99590.88;5083336;28;20472;-69
2020/12/15 04:33:11;;;;;;;5.93;5.10;;;;;;;6.40;81.58;99592.53;5090904;28;20490;-69
2020/12/15 04:35:37;;;;;;;6.73;5.20;;;;;;;6.28;82.17;99598.88;5104008;28;20611;-69
2020/12/15 04:38:04;;;;;;;6.90;5.83;;;;;;;6.34;81.59;99601.03;5088578;28;20511;-69
2020/12/15 04:40:31;;;;;;;5.67;5.07;;;;;;;6.31;82.03;99601.28;5083831;28;20507;-69
2020/12/15 04:42:59;;;;;;;7.07;6.37;;;;;;;6.33;82.60;99606.47;5094325;28;20525;-69
2020/12/15 04:45:25;;;;;;;5.67;5.17;;;;;;;6.32;82.68;99603.00;5082912;28;20491;-69
2020/12/15 04:47:54;;;;;;;6.80;5.53;;;;;;;6.32;83.24;99605.66;5099016;28;20455;-69
2020/12/15 04:50:21;;;;;;;7.00;5.80;;;;;;;6.34;83.25;99610.81;5103898;28;20427;-70
2020/12/15 04:52:53;;;;;;;5.60;5.10;;;;;;;6.36;83.78;99614.19;5104041;28;20479;-70
2020/12/15 04:55:21;;;;;;;6.50;5.90;;;;;;;6.38;83.77;99612.25;5103535;28;20435;-70
2020/12/15 04:57:48;;;;;;;6.87;6.17;;;;;;;6.37;84.36;99608.75;5087743;28;20492;-70
2020/12/15 05:00:16;;;;;;;7.17;5.47;;;;;;;6.31;84.57;99605.78;5082741;28;20459;-69
2020/12/15 05:02:43;;;;;;;6.20;5.20;;;;;;;6.34;84.90;99601.03;5092044;28;20516;-70
2020/12/15 05:05:10;;;;;;;6.57;5.97;;;;;;;6.22;85.66;99612.69;5082732;28;20468;-69
2020/12/15 05:07:39;;;;;;;6.20;5.60;;;;;;;6.20;85.97;99615.47;5098493;28;20450;-70
2020/12/15 05:10:06;;;;;;;7.90;6.30;;;;;;;6.16;86.53;99613.19;5103010;28;20455;-69
2020/12/15 05:12:32;;;;;;;6.07;5.47;;;;;;;6.15;87.17;99609.72;5102243;28;20454;-70
2020/12/15 05:14:59;;;;;;;6.67;6.07;;;;;;;6.13;87.18;99618.78;5089180;28;20460;-70
2020/12/15 05:17:25;;;;;;;7.53;5.80;;;;;;;6.21;86.68;99611.00;5082939;28;20525;-69
2020/12/15 05:19:51;;;;;;;7.87;6.63;;;;;;;6.13;87.42;99618.78;5094385;28;20459;-69
2020/12/15 05:22:18;;;;;;;6.80;6.10;;;;;;;6.11;87.88;99610.06;5082970;28;20567;-69
2020/12/15 05:24:47;;;;;;;9.03;6.47;;;;;;;6.17;87.32;99606.94;5091171;28;20525;-69
2020/12/15 05:27:15;;;;;;;7.47;6.67;;;;;;;6.11;88.26;99616.25;5101547;28;20485;-70
2020/12/15 05:29:41;;;;;;;7.70;7.00;;;;;;;6.17;88.00;99617.53;5090313;28;20470;-69
2020/12/15 05:32:09;;;;;;;8.10;7.10;;;;;;;6.03;88.54;99616.03;5100581;28;20609;-69
2020/12/15 05:34:35;;;;;;;8.73;7.10;;;;;;;6.11;87.97;99621.56;5088916;28;20451;-70
2020/12/15 05:37:01;;;;;;;8.77;7.40;;;;;;;6.06;88.47;99615.78;5084057;28;20508;-70
2020/12/15 05:39:28;;;;;;;13.63;7.57;;;;;;;6.17;88.16;99614.91;5084606;28;20455;-70
2020/12/15 05:42:03;;;;;;;8.70;7.63;;;;;;;6.10;88.80;99624.34;5081203;28;20471;-70
2020/12/15 05:44:29;;;;;;;10.63;8.30;;;;;;;6.03;89.01;99618.69;5083020;28;20462;-70
2020/12/15 05:47:04;;;;;;;8.20;7.00;;;;;;;6.02;88.85;99624.97;5080782;28;20474;-70
2020/12/15 05:49:33;;;;;;;9.80;7.97;;;;;;;6.01;89.73;99621.47;5082882;28;20458;-70
2020/12/15 05:52:00;;;;;;;9.03;7.97;;;;;;;6.07;89.42;99624.59;5081772;28;20507;-70
2020/12/15 05:54:27;;;;;;;10.20;8.43;;;;;;;5.97;89.75;99625.34;5092709;28;20451;-70
2020/12/15 05:57:01;;;;;;;10.43;8.40;;;;;;;5.93;90.44;99617.72;5102087;28;20498;-70
2020/12/15 05:59:27;;;;;;;11.37;9.00;;;;;;;5.85;90.92;99626.34;5084497;28;20456;-70
2020/12/15 06:01:55;;;;;;;12.17;9.33;;;;;;;5.84;90.93;99625.47;5081568;28;20499;-70
2020/12/15 06:04:22;;;;;;;10.63;9.53;;;;;;;5.82;91.46;99622.09;5083498;28;20471;-62
2020/12/15 06:06:49;;;;;;;11.17;9.47;;;;;;;5.84;91.39;99624.63;5081537;28;20547;-62
2020/12/15 06:09:16;;;;;;;15.47;9.93;;;;;;;5.82;91.46;99615.97;5099301;28;20486;-62
2020/12/15 06:11:44;;;;;;;12.30;10.00;;;;;;;5.87;91.23;99608.47;5090874;28;20509;-62
2020/12/15 06:14:11;;;;;;;14.07;10.40;;;;;;;5.82;91.57;99621.28;5081159;28;20516;-62
2020/12/15 06:16:37;;;;;;;12.43;10.13;;;;;;;5.84;91.18;99617.50;5080929;28;20521;-62
2020/12/15 06:19:06;;;;;;;14.47;11.47;;;;;;;5.86;91.34;99612.09;5085122;28;20460;-62
2020/12/15 06:21:32;;;;;;;14.47;11.83;;;;;;;5.85;91.28;99615.72;5085768;28;20507;-63
2020/12/15 06:24:01;;;;;;;14.87;11.70;;;;;;;5.95;90.58;99613.97;5093635;28;20481;-70
2020/12/15 06:26:28;;;;;;;15.60;11.60;;;;;;;5.99;90.93;99618.09;5088147;28;20468;-69
2020/12/15 06:28:58;;;;;;;16.73;11.30;;;;;;;5.99;90.78;99620.75;5086005;28;20456;-69
2020/12/15 06:31:24;;;;;;;15.63;11.80;;;;;;;5.97;91.17;99620.06;5065308;28;20599;-69
2020/12/15 06:33:54;;;;;;;13.70;10.80;;;;;;;6.09;90.38;99606.72;5067029;28;20453;-69
2020/12/15 06:36:25;;;;;;;16.47;11.50;;;;;;;6.10;90.51;99614.56;5079977;28;20528;-68
2020/12/15 06:38:51;;;;;;;14.83;11.97;;;;;;;6.14;90.52;99613.31;5087280;28;20466;-69
2020/12/15 06:41:20;;;;;;;15.50;12.70;;;;;;;6.13;90.50;99619.63;5091971;28;20579;-69
2020/12/15 06:43:47;;;;;;;15.20;10.97;;;;;;;6.11;90.96;99618.03;5092944;28;20532;-67
2020/12/15 06:46:13;;;;;;;20.07;13.13;;;;;;;6.27;89.86;99625.56;5093420;28;20577;-69
2020/12/15 06:48:39;;;;;;;15.67;13.30;;;;;;;6.21;90.68;99630.44;5106859;28;20924;-67
2020/12/15 06:51:06;;;;;;;21.20;15.30;;;;;;;6.21;90.65;99625.13;5097637;28;20476;-67
2020/12/15 06:53:32;;;;;;;17.17;13.40;;;;;;;6.24;90.83;99634.63;5086013;28;20428;-68
2020/12/15 06:55:59;;;;;;;20.53;14.93;;;;;;;6.20;90.63;99627.91;5084998;28;20891;-66
2020/12/15 06:58:26;;;;;;;14.10;11.80;;;;;;;6.21;90.66;99630.44;5084062;28;20464;-69
2020/12/15 07:00:53;;;;;;;15.13;12.43;;;;;;;6.26;90.55;99634.50;5081222;28;20541;-69
2020/12/15 07:03:33;;;;;;;18.80;13.70;;;;;;;6.27;90.59;99645.00;5081344;28;20494;-69
2020/12/15 07:06:07;;;;;;;16.13;12.43;;;;;;;6.23;91.04;99638.25;5085579;28;20899;-68
2020/12/15 07:08:33;;;;;;;14.73;12.40;;;;;;;6.31;90.92;99640.28;5086288;28;20494;-68
2020/12/15 07:11:00;;;;;;;40.90;27.33;;;;;;;6.44;90.36;99640.94;5084472;28;20529;-67
2020/12/15 07:13:27;;;;;;;14.87;12.87;;;;;;;6.37;90.78;99639.75;5085557;28;20464;-67
2020/12/15 07:15:53;;;;;;;18.67;12.63;;;;;;;6.45;90.46;99639.13;5083296;28;20456;-68
2020/12/15 07:18:19;;;;;;;23.20;13.57;;;;;;;6.43;90.48;99641.06;5085200;28;21000;-68
2020/12/15 07:20:45;;;;;;;15.10;13.00;;;;;;;6.44;90.65;99626.81;5084016;28;20507;-68
2020/12/15 07:23:11;;;;;;;14.97;12.63;;;;;;;6.50;90.63;99631.63;5087273;28;20808;-68
2020/12/15 07:25:37;;;;;;;15.53;11.77;;;;;;;6.57;90.32;99630.94;5082734;28;20476;-69
2020/12/15 07:28:03;;;;;;;13.37;11.10;;;;;;;6.54;90.10;99631.19;5084998;28;20487;-67
2020/12/15 07:30:31;;;;;;;15.20;12.00;;;;;;;6.57;90.48;99641.56;5079894;28;20487;-66
2020/12/15 07:32:57;;;;;;;20.50;11.73;;;;;;;6.60;90.26;99640.50;5083240;28;20493;-67
2020/12/15 07:35:25;;;;;;;19.20;13.27;;;;;;;6.61;89.88;99644.81;5082297;28;20846;-69
2020/12/15 07:37:54;;;;;;;16.43;13.43;;;;;;;6.49;89.45;99656.47;5076432;28;21068;-68
2020/12/15 07:40:20;;;;;;;17.97;14.77;;;;;;;6.41;89.17;99652.66;5071887;28;20809;-67
2020/12/15 07:42:54;;;;;;;19.50;14.10;;;;;;;6.27;89.55;99647.66;5078695;28;20462;-67
2020/12/15 07:45:21;;;;;;;18.50;14.57;;;;;;;6.14;90.30;99657.59;5079703;28;20448;-68
2020/12/15 07:47:49;;;;;;;19.03;14.40;;;;;;;6.11;90.51;99660.50;5083197;28;20444;-69
2020/12/15 07:50:15;;;;;;;22.00;14.23;;;;;;;6.11;90.32;99653.41;5081329;28;20429;-72
2020/12/15 07:52:41;;;;;;;17.70;15.67;;;;;;;6.08;90.43;99658.13;5083075;28;20455;-82
2020/12/15 07:55:09;;;;;;;18.50;15.53;;;;;;;5.99;90.53;99659.72;5083069;28;20440;-78
2020/12/15 07:57:37;;;;;;;19.90;15.27;;;;;;;6.00;90.88;99658.75;5084463;28;20513;-78
2020/12/15 08:00:14;;;;;;;20.80;15.57;;;;;;;6.02;91.00;99672.72;5079714;28;20472;-81
2020/12/15 08:02:41;;;;;;;21.53;15.40;;;;;;;6.10;90.57;99669.44;5082956;28;20472;-84
2020/12/15 08:05:12;;;;;;;19.03;15.73;;;;;;;6.12;90.96;99657.72;5081528;28;20444;-76
2020/12/15 08:07:49;;;;;;;21.20;15.10;;;;;;;6.15;90.98;99665.44;5085797;28;20452;-69
2020/12/15 08:10:23;;;;;;;17.30;14.90;;;;;;;6.28;90.88;99659.94;5097845;28;20705;-71
2020/12/15 08:12:49;;;;;;;24.60;16.93;;;;;;;6.25;90.03;99662.88;5085716;28;20447;-71
2020/12/15 08:15:15;;;;;;;26.57;20.23;;;;;;;6.27;90.46;99668.03;5085254;28;20458;-69
2020/12/15 08:17:45;;;;;;;22.60;17.63;;;;;;;6.39;89.48;99667.03;5089392;28;20617;-71
2020/12/15 08:20:15;;;;;;;19.67;15.20;;;;;;;6.40;89.51;99672.19;5082461;28;20531;-71
2020/12/15 08:22:42;;;;;;;20.13;15.97;;;;;;;6.41;89.45;99671.25;5082897;28;20474;-72
2020/12/15 08:25:09;;;;;;;20.77;14.97;;;;;;;6.48;89.11;99668.09;5082527;28;20574;-72
2020/12/15 08:27:37;;;;;;;23.83;16.33;;;;;;;6.47;89.00;99677.84;5074038;28;20455;-71
2020/12/15 08:30:21;;;;;;;21.47;16.47;;;;;;;6.57;88.71;99676.09;5070929;28;20516;-72
2020/12/15 08:32:50;;;;;;;18.63;15.20;;;;;;;6.48;88.96;99676.06;5075581;28;20622;-71
2020/12/15 08:35:24;;;;;;;20.67;16.43;;;;;;;6.62;89.03;99675.72;5077274;28;20456;-69
2020/12/15 08:37:56;;;;;;;22.90;17.43;;;;;;;6.59;89.12;99679.47;5073623;28;20951;-69
2020/12/15 08:40:23;;;;;;;23.20;17.03;;;;;;;6.37;89.40;99685.75;5079078;28;20444;-70
2020/12/15 08:42:55;;;;;;;19.30;14.57;;;;;;;6.50;89.68;99674.94;5078617;28;20448;-70
2020/12/15 08:45:25;;;;;;;24.40;17.40;;;;;;;6.50;89.74;99680.25;5076388;28;20475;-71
2020/12/15 08:47:53;;;;;;;20.40;16.27;;;;;;;6.58;89.67;99688.44;5072163;28;20459;-70
2020/12/15 08:50:19;;;;;;;21.57;15.67;;;;;;;6.81;89.29;99688.28;5078611;28;20456;-68
2020/12/15 08:52:47;;;;;;;21.07;16.33;;;;;;;6.76;89.09;99686.03;5080130;28;20451;-68
2020/12/15 08:55:14;;;;;;;20.10;16.23;;;;;;;6.92;89.08;99695.34;5076756;28;20499;-70
2020/12/15 08:57:41;;;;;;;18.40;15.20;;;;;;;6.98;88.69;99686.88;5068766;28;20496;-72
2020/12/15 09:00:12;;;;;;;20.17;15.57;;;;;;;6.91;89.19;99697.16;5077755;28;20455;-78
2020/12/15 09:02:39;;;;;;;19.80;15.77;;;;;;;7.05;88.66;99689.81;5078099;28;20443;-76
2020/12/15 09:05:08;;;;;;;19.70;16.43;;;;;;;7.04;87.50;99685.47;5081537;28;20444;-78
2020/12/15 09:07:36;;;;;;;21.07;15.80;;;;;;;6.93;88.16;99686.41;5082768;28;20452;-81
2020/12/15 09:10:12;;;;;;;19.33;15.33;;;;;;;7.07;87.72;99688.72;5082403;28;20443;-77
2020/12/15 09:12:42;;;;;;;19.63;16.60;;;;;;;7.04;88.08;99690.81;5070480;28;20468;-80
2020/12/15 09:15:09;;;;;;;21.57;15.53;;;;;;;6.95;87.94;99695.91;5081992;28;20495;-79
2020/12/15 09:17:35;;;;;;;21.50;16.97;;;;;;;6.91;88.10;99691.00;5082745;28;20690;-76
2020/12/15 09:20:02;;;;;;;20.13;16.37;;;;;;;7.01;88.03;99689.22;5083792;28;20491;-75
2020/12/15 09:22:29;;;;;;;22.20;17.07;;;;;;;6.76;88.56;99701.97;5081850;28;20476;-78
2020/12/15 09:24:57;;;;;;;21.80;16.60;;;;;;;6.64;89.48;99703.00;5083290;28;20532;-78
2020/12/15 09:27:25;;;;;;;22.97;17.23;;;;;;;6.60;89.93;99693.59;5080826;28;20476;-77
2020/12/15 09:29:53;;;;;;;21.40;18.00;;;;;;;6.65;89.81;99706.47;5081860;28;20444;-77
2020/12/15 09:32:20;;;;;;;22.67;16.97;;;;;;;6.69;89.77;99711.41;5079566;28;20508;-78
2020/12/15 09:34:47;;;;;;;22.03;18.80;;;;;;;6.62;90.04;99704.09;5081905;28;20447;-74
2020/12/15 09:37:14;;;;;;;26.03;17.27;;;;;;;6.76;90.33;99706.44;5077871;28;20476;-75
2020/12/15 09:39:42;;;;;;;24.20;17.20;;;;;;;6.84;89.95;99696.00;5082720;28;20493;-73
2020/12/15 09:42:09;;;;;;;23.50;17.60;;;;;;;6.88;90.29;99694.75;5079384;28;20472;-73
2020/12/15 09:44:37;;;;;;;22.33;17.50;;;;;;;7.07;89.66;99693.22;5082734;28;20461;-71
2020/12/15 09:47:04;;;;;;;23.73;17.43;;;;;;;7.10;89.65;99691.13;5081295;28;20471;-72
2020/12/15 09:49:31;;;;;;;22.43;17.37;;;;;;;7.01;89.79;99704.34;5079936;28;20454;-71
2020/12/15 09:51:59;;;;;;;22.47;16.90;;;;;;;7.03;89.92;99705.06;5082816;28;20459;-77
2020/12/15 09:54:26;;;;;;;22.37;17.73;;;;;;;7.09;89.37;99696.56;5087530;28;20473;-77
2020/12/15 09:56:52;;;;;;;24.67;18.13;;;;;;;7.16;89.02;99705.69;5084458;28;20471;-81
2020/12/15 09:59:19;;;;;;;23.57;16.80;;;;;;;7.24;88.99;99703.22;5083930;28;20482;-77
2020/12/15 10:01:47;;;;;;;23.73;17.20;;;;;;;7.12;89.78;99701.63;5085100;28;21004;-79
2020/12/15 10:04:14;;;;;;;23.00;17.53;;;;;;;7.25;89.38;99702.22;5079679;28;20451;-81
2020/12/15 10:06:43;;;;;;;24.43;17.03;;;;;;;7.34;89.84;99703.25;5078715;28;20484;-75
2020/12/15 10:09:10;;;;;;;19.97;16.30;;;;;;;7.49;88.41;99701.91;5085008;28;20440;-68
2020/12/15 10:11:37;;;;;;;24.73;18.40;;;;;;;7.35;88.68;99708.44;5082758;28;20484;-69
2020/12/15 10:14:04;;;;;;;21.40;15.97;;;;;;;7.22;89.05;99712.28;5084265;28;20444;-69
2020/12/15 10:16:32;;;;;;;18.57;16.23;;;;;;;6.99;90.41;99725.75;5082749;28;20480;-70
2020/12/15 10:19:00;;;;;;;25.00;17.17;;;;;;;6.84;90.82;99727.03;5083392;28;20838;-71
2020/12/15 10:21:27;;;;;;;22.43;18.33;;;;;;;6.86;91.61;99733.91;5083032;28;20547;-71
2020/12/15 10:23:54;;;;;;;21.40;17.80;;;;;;;6.78;91.39;99739.84;5081114;28;20431;-74
2020/12/15 10:26:22;;;;;;;25.77;19.07;;;;;;;6.81;91.22;99746.75;5082229;28;20477;-70
2020/12/15 10:28:49;;;;;;;20.80;17.37;;;;;;;6.88;91.38;99752.41;5081620;28;20454;-72
2020/12/15 10:31:16;;;;;;;23.47;19.17;;;;;;;6.83;91.79;99747.44;5077685;28;20475;-74
2020/12/15 10:33:44;;;;;;;20.40;16.00;;;;;;;7.00;91.30;99750.53;5077271;28;20472;-83
2020/12/15 10:36:14;;;;;;;18.70;15.23;;;;;;;6.90;91.45;99750.44;5081270;28;20475;-68
2020/12/15 10:38:41;;;;;;;19.47;15.10;;;;;;;6.97;91.95;99736.50;5083129;28;20988;-67
2020/12/15 10:41:09;;;;;;;16.80;13.80;;;;;;;6.96;92.07;99747.25;5082758;28;20492;-66
2020/12/15 10:43:36;;;;;;;18.73;15.50;;;;;;;7.11;92.08;99748.63;5085107;28;20468;-68
2020/12/15 10:46:04;;;;;;;19.47;15.33;;;;;;;7.11;92.08;99745.94;5078651;28;20579;-68
2020/12/15 10:48:31;;;;;;;16.80;12.73;;;;;;;7.09;91.75;99747.91;5082904;28;20448;-70
2020/12/15 10:50:58;;;;;;;18.87;14.83;;;;;;;7.09;92.47;99752.38;5080046;28;20467;-74
2020/12/15 10:53:26;;;;;;;15.37;12.87;;;;;;;7.04;92.24;99755.44;5085105;28;20585;-76
2020/12/15 10:55:53;;;;;;;14.10;11.17;;;;;;;7.07;92.46;99749.03;5082174;28;20496;-68
2020/12/15 10:58:20;;;;;;;15.17;12.33;;;;;;;7.06;92.38;99742.84;5082980;28;20489;-69
2020/12/15 11:00:48;;;;;;;15.90;11.03;;;;;;;7.09;92.87;99744.41;5092876;28;20464;-69
2020/12/15 11:03:15;;;;;;;14.53;12.13;;;;;;;6.97;92.73;99744.47;5075656;28;20704;-69
2020/12/15 11:05:43;;;;;;;13.93;11.40;;;;;;;7.03;93.20;99744.91;5080553;28;20468;-72
2020/12/15 11:08:10;;;;;;;13.33;11.73;;;;;;;7.04;93.08;99741.31;5083434;28;20448;-66
2020/12/15 11:10:38;;;;;;;13.13;10.40;;;;;;;7.03;92.98;99742.25;5082641;28;20569;-66
2020/12/15 11:13:05;;;;;;;42.23;31.43;;;;;;;7.04;93.21;99731.50;5084344;28;20496;-65
2020/12/15 11:15:33;;;;;;;15.20;13.60;;;;;;;7.08;92.88;99748.91;5082901;28;20472;-66
2020/12/15 11:18:00;;;;;;;14.13;11.23;;;;;;;7.01;93.17;99733.59;5082502;28;20475;-64
2020/12/15 11:20:26;;;;;;;18.60;16.70;;;;;;;7.05;93.08;99741.19;5082286;28;20472;-65
2020/12/15 11:22:52;;;;;;;14.70;11.40;;;;;;;7.08;93.00;99724.09;5083968;28;20737;-67
2020/12/15 11:25:18;;;;;;;12.33;10.40;;;;;;;7.16;93.22;99732.28;5080636;28;20484;-66
2020/12/15 11:27:46;;;;;;;11.27;10.07;;;;;;;7.12;93.27;99726.38;5084115;28;20447;-66
2020/12/15 11:30:13;;;;;;;12.80;10.70;;;;;;;6.97;93.16;99733.84;5081903;28;20949;-66
2020/12/15 11:32:40;;;;;;;22.83;20.37;;;;;;;7.01;93.15;99731.75;5083495;28;20452;-66
2020/12/15 11:35:06;;;;;;;106.90;84.03;;;;;;;7.02;93.63;99728.13;5083094;28;20546;-66